Time;durP1;ratioP1;P1;durP2;ratioP2;P2;SDS_P1;SDS_P2;PMS_P1;PMS_P2;Temp;Humidity;BMP_temperature;BMP_pressure;BME280_temperature;BME280_humidity;BME280_pressure;Samples;Min_cycle;Max_cycle;Signal;HPM_P1;HPM_P2
2022/06/28 00:01:22;;;;;;;8.70;8.00;;;17.70;99.90;;;;;;5132732;28;20559;-68
2022/06/28 00:03:48;;;;;;;10.30;9.40;;;17.60;99.90;;;;;;5132500;28;20273;-68
2022/06/28 00:06:14;;;;;;;9.60;8.90;;;17.70;99.90;;;;;;5130301;27;20225;-68
2022/06/28 00:08:39;;;;;;;10.47;9.57;;;17.70;99.90;;;;;;5131266;28;20179;-68
2022/06/28 00:11:05;;;;;;;10.50;9.70;;;17.70;99.90;;;;;;5131311;28;20198;-68
2022/06/28 00:13:31;;;;;;;10.43;9.53;;;17.70;99.90;;;;;;5131038;28;20615;-68
2022/06/28 00:16:06;;;;;;;9.87;9.17;;;17.80;99.90;;;;;;5131573;28;20178;-73
2022/06/28 00:18:36;;;;;;;9.80;9.00;;;17.80;99.90;;;;;;5130653;28;20670;-69
2022/06/28 00:21:03;;;;;;;9.80;9.00;;;17.80;99.90;;;;;;5089736;28;1082575;-69
2022/06/28 00:23:30;;;;;;;9.93;9.10;;;17.90;99.90;;;;;;5110218;28;20281;-68
2022/06/28 00:25:56;;;;;;;10.00;9.10;;;17.90;99.90;;;;;;5112125;28;20798;-72
2022/06/28 00:28:22;;;;;;;10.23;9.53;;;17.90;99.90;;;;;;5111992;28;20492;-69
2022/06/28 00:30:47;;;;;;;10.57;9.53;;;17.80;99.90;;;;;;5112487;28;20405;-69
2022/06/28 00:33:13;;;;;;;9.07;8.47;;;17.80;99.90;;;;;;5110393;28;20538;-69
2022/06/28 00:35:40;;;;;;;9.80;8.80;;;17.70;99.90;;;;;;5112464;28;20585;-69
2022/06/28 00:38:06;;;;;;;10.10;9.30;;;17.70;99.90;;;;;;5126542;28;20207;-69
2022/06/28 00:40:33;;;;;;;9.27;8.57;;;17.70;99.90;;;;;;5131744;28;20419;-69
2022/06/28 00:42:59;;;;;;;9.77;8.87;;;17.70;99.90;;;;;;5130634;28;20519;-70
2022/06/28 00:45:25;;;;;;;9.00;8.30;;;17.60;99.90;;;;;;5130937;28;20503;-69
2022/06/28 00:47:53;;;;;;;9.80;9.00;;;17.60;99.90;;;;;;5132665;28;20425;-69
2022/06/28 00:50:18;;;;;;;8.43;7.83;;;17.50;99.90;;;;;;5130634;28;21259;-69
2022/06/28 00:53:10;;;;;;;9.10;8.47;;;17.50;99.90;;;;;;5117328;28;20414;-68
2022/06/28 00:55:37;;;;;;;9.47;8.67;;;17.50;99.90;;;;;;5112395;28;20165;-68
2022/06/28 00:58:03;;;;;;;8.40;7.70;;;17.50;99.90;;;;;;5118321;28;20979;-69
2022/06/28 01:00:34;;;;;;;9.50;8.60;;;17.40;99.90;;;;;;5131438;28;20404;-69
2022/06/28 01:03:00;;;;;;;7.87;7.30;;;17.40;99.90;;;;;;5132062;28;20401;-72
2022/06/28 01:05:27;;;;;;;8.60;7.90;;;17.30;99.90;;;;;;5132459;28;20408;-69
2022/06/28 01:07:53;;;;;;;8.90;8.20;;;17.30;99.90;;;;;;5130914;28;20813;-68
2022/06/28 01:10:19;;;;;;;9.53;8.70;;;17.20;99.90;;;;;;5130651;28;20397;-69
2022/06/28 01:12:44;;;;;;;9.70;8.93;;;17.20;99.90;;;;;;5132606;28;20173;-69
2022/06/28 01:15:13;;;;;;;9.80;9.00;;;17.10;99.90;;;;;;5131532;28;20202;-68
2022/06/28 01:17:38;;;;;;;9.47;8.67;;;17.10;99.90;;;;;;5132273;27;20880;-69
2022/06/28 01:20:05;;;;;;;9.77;8.93;;;17.00;99.90;;;;;;5135068;27;20262;-69
2022/06/28 01:22:31;;;;;;;10.17;9.27;;;16.90;99.90;;;;;;5120455;27;20250;-68
2022/06/28 01:24:57;;;;;;;9.10;8.40;;;16.90;99.90;;;;;;5114745;28;20780;-68
2022/06/28 01:27:23;;;;;;;9.33;8.63;;;16.70;99.90;;;;;;5124192;27;20507;-68
2022/06/28 01:29:50;;;;;;;10.43;9.27;;;16.50;99.90;;;;;;5136079;27;20269;-68
2022/06/28 01:32:15;;;;;;;9.90;8.97;;;16.30;99.90;;;;;;5131981;27;20427;-68
2022/06/28 01:34:41;;;;;;;10.30;9.40;;;16.20;99.90;;;;;;5135967;27;20411;-68
2022/06/28 01:37:10;;;;;;;10.00;9.10;;;16.20;99.90;;;;;;5135150;27;20175;-68
2022/06/28 01:39:36;;;;;;;10.63;9.67;;;16.20;99.90;;;;;;5135922;27;20210;-68
2022/06/28 01:42:03;;;;;;;10.70;9.80;;;16.20;99.90;;;;;;5133848;27;20424;-71
2022/06/28 01:44:29;;;;;;;10.33;9.50;;;16.10;99.90;;;;;;5135471;27;20436;-68
2022/06/28 01:46:57;;;;;;;10.17;9.37;;;16.10;99.90;;;;;;5135650;27;20735;-69
2022/06/28 01:49:22;;;;;;;10.57;9.67;;;16.00;99.90;;;;;;5134825;27;20515;-68
2022/06/28 01:51:50;;;;;;;11.67;10.17;;;16.00;99.90;;;;;;5124495;27;20563;-69
2022/06/28 01:54:16;;;;;;;8.93;8.30;;;16.00;99.90;;;;;;5113409;28;20186;-68
2022/06/28 01:56:43;;;;;;;9.67;8.67;;;16.00;99.90;;;;;;5112896;28;20433;-69
2022/06/28 01:59:09;;;;;;;9.67;8.67;;;16.10;99.90;;;;;;5131582;27;20537;-69
2022/06/28 02:01:36;;;;;;;8.23;7.60;;;16.20;99.90;;;;;;5126598;27;20437;-69
2022/06/28 02:04:20;;;;;;;8.57;7.97;;;16.30;99.90;;;;;;5124863;27;20917;-72
2022/06/28 02:06:46;;;;;;;10.60;8.00;;;16.40;99.90;;;;;;5135400;27;20393;-69
2022/06/28 02:09:12;;;;;;;8.83;7.97;;;16.40;99.90;;;;;;5134522;27;20408;-69
2022/06/28 02:11:38;;;;;;;8.80;8.20;;;16.50;99.90;;;;;;5133978;27;20469;-68
2022/06/28 02:14:04;;;;;;;9.67;8.87;;;16.50;99.90;;;;;;5115907;27;20179;-71
2022/06/28 02:16:30;;;;;;;9.40;8.60;;;16.50;99.90;;;;;;5111304;28;21023;-69
2022/06/28 02:18:56;;;;;;;9.33;8.63;;;16.50;99.90;;;;;;5123564;27;20214;-69
2022/06/28 02:21:21;;;;;;;9.43;8.70;;;16.50;99.90;;;;;;5125147;27;20227;-69
2022/06/28 02:23:48;;;;;;;9.60;8.63;;;16.60;99.90;;;;;;5127081;27;20171;-68
2022/06/28 02:26:14;;;;;;;9.90;9.10;;;16.60;99.90;;;;;;5125977;27;20219;-69
2022/06/28 02:28:41;;;;;;;9.33;8.67;;;16.70;99.90;;;;;;5134399;27;20416;-70
2022/06/28 02:31:14;;;;;;;8.33;7.63;;;16.70;99.90;;;;;;5125095;27;20178;-69
2022/06/28 02:33:42;;;;;;;9.03;8.33;;;16.70;99.90;;;;;;5124998;27;20425;-69
2022/06/28 02:40:21;;;;;;;8.30;7.70;;;16.60;99.90;;;;;;5134582;27;20931;-68
2022/06/28 02:41:54;;;;;;;8.63;8.03;;;16.60;99.90;;;;;;5133147;27;20427;-68
2022/06/28 02:44:20;;;;;;;8.17;7.57;;;16.60;99.90;;;;;;5130524;27;20417;-69
2022/06/28 02:46:48;;;;;;;9.43;8.73;;;16.60;99.90;;;;;;5132048;27;20497;-69
2022/06/28 02:49:15;;;;;;;8.67;8.00;;;16.60;99.90;;;;;;5133770;27;20178;-68
2022/06/28 02:51:41;;;;;;;8.20;7.60;;;16.50;99.90;;;;;;5131392;27;20428;-68
2022/06/28 02:54:08;;;;;;;8.73;8.03;;;16.50;99.90;;;;;;5133688;27;20895;-69
2022/06/28 02:56:34;;;;;;;8.13;7.50;;;16.50;99.90;;;;;;5133262;27;20427;-69
2022/06/28 02:59:00;;;;;;;7.77;7.07;;;16.50;99.90;;;;;;5134331;27;20460;-69
2022/06/28 03:01:26;;;;;;;8.80;8.20;;;16.40;99.90;;;;;;5130350;27;20484;-68
2022/06/28 03:03:52;;;;;;;8.43;7.73;;;16.40;99.90;;;;;;5134503;27;20770;-69
2022/06/28 03:06:17;;;;;;;9.90;9.10;;;16.40;99.90;;;;;;5125631;27;20580;-68
2022/06/28 03:08:46;;;;;;;9.40;8.50;;;16.40;99.90;;;;;;5132039;27;20183;-69
2022/06/28 03:11:12;;;;;;;8.80;8.20;;;16.30;99.90;;;;;;5131862;27;20426;-69
2022/06/28 03:13:37;;;;;;;9.03;8.33;;;16.30;99.90;;;;;;5127732;27;20461;-69
2022/06/28 03:16:03;;;;;;;10.07;9.27;;;16.30;99.90;;;;;;5133705;27;20171;-71
2022/06/28 03:18:29;;;;;;;10.60;9.80;;;16.30;99.90;;;;;;5131345;27;20963;-69
2022/06/28 03:20:55;;;;;;;9.40;8.60;;;16.20;99.90;;;;;;5115175;27;20464;-68
2022/06/28 03:23:21;;;;;;;9.43;8.63;;;16.30;99.90;;;;;;5132815;27;20622;-68
2022/06/28 03:25:46;;;;;;;9.97;9.00;;;16.20;99.90;;;;;;5133914;27;20519;-69
2022/06/28 03:28:12;;;;;;;10.73;9.77;;;16.30;99.90;;;;;;5133245;27;20224;-69
2022/06/28 03:30:38;;;;;;;10.60;9.80;;;16.30;99.90;;;;;;5133790;27;20577;-69
2022/06/28 03:33:04;;;;;;;9.40;8.70;;;16.30;99.90;;;;;;5130555;27;20927;-68
2022/06/28 03:35:29;;;;;;;10.50;9.80;;;16.30;99.90;;;;;;5132969;27;20195;-69
2022/06/28 03:37:55;;;;;;;10.70;9.80;;;16.20;99.90;;;;;;5124569;27;20659;-68
2022/06/28 03:40:21;;;;;;;10.40;9.50;;;16.20;99.90;;;;;;5132603;27;20171;-69
2022/06/28 03:42:47;;;;;;;10.57;9.73;;;16.20;99.90;;;;;;5127052;27;20182;-69
2022/06/28 03:45:12;;;;;;;9.10;8.27;;;16.30;99.90;;;;;;5111982;28;20270;-69
2022/06/28 03:47:38;;;;;;;12.13;11.30;;;16.30;99.90;;;;;;5110840;28;20265;-69
2022/06/28 03:50:04;;;;;;;11.53;10.43;;;16.30;99.90;;;;;;5130835;27;20204;-69
2022/06/28 03:52:30;;;;;;;10.27;9.47;;;16.30;99.90;;;;;;5131177;27;20535;-69
2022/06/28 03:54:57;;;;;;;11.43;10.63;;;16.30;99.90;;;;;;5129703;27;20523;-68
2022/06/28 03:57:24;;;;;;;9.97;9.17;;;16.30;99.90;;;;;;5132448;27;20171;-69
2022/06/28 03:59:50;;;;;;;9.43;8.67;;;16.30;99.90;;;;;;5130761;27;20435;-69
2022/06/28 04:02:15;;;;;;;8.37;7.67;;;16.30;99.90;;;;;;5132477;27;20401;-69
2022/06/28 04:04:41;;;;;;;9.53;8.63;;;16.30;99.90;;;;;;5133385;27;20199;-70
2022/06/28 04:07:07;;;;;;;10.63;9.83;;;16.40;99.90;;;;;;5133336;27;20167;-73
2022/06/28 04:09:32;;;;;;;9.10;8.40;;;16.40;99.90;;;;;;5120657;28;20171;-69
2022/06/28 04:11:58;;;;;;;9.67;8.70;;;16.40;99.90;;;;;;5091808;28;20168;-71
2022/06/28 04:14:24;;;;;;;11.67;10.77;;;16.40;99.90;;;;;;5112134;28;20194;-69
2022/06/28 04:16:49;;;;;;;9.83;9.03;;;16.40;99.90;;;;;;5105950;27;20666;-69
2022/06/28 04:19:18;;;;;;;10.30;9.30;;;16.40;99.90;;;;;;5129114;28;20674;-69
2022/06/28 04:21:44;;;;;;;8.80;8.20;;;16.50;99.90;;;;;;5127682;28;20214;-69
2022/06/28 04:24:09;;;;;;;10.87;9.77;;;16.40;99.90;;;;;;5110956;28;20877;-74
2022/06/28 04:26:35;;;;;;;9.83;9.03;;;16.50;99.90;;;;;;5112527;28;20532;-69
2022/06/28 04:29:01;;;;;;;9.60;8.83;;;16.50;99.90;;;;;;5103109;28;20186;-70
2022/06/28 04:31:27;;;;;;;10.17;9.27;;;16.50;99.90;;;;;;5102673;28;20176;-69
2022/06/28 04:33:52;;;;;;;11.07;10.07;;;16.50;99.90;;;;;;5099667;28;20175;-70
2022/06/28 04:36:18;;;;;;;10.30;9.50;;;16.60;99.90;;;;;;5104340;28;20190;-69
2022/06/28 04:38:44;;;;;;;11.40;10.50;;;16.60;99.90;;;;;;5130800;28;20234;-69
2022/06/28 04:41:10;;;;;;;10.90;10.07;;;16.60;99.90;;;;;;5100218;27;20172;-69
2022/06/28 04:43:36;;;;;;;11.30;10.10;;;16.70;99.90;;;;;;5105071;28;20471;-73
2022/06/28 04:46:02;;;;;;;11.70;10.60;;;16.70;99.90;;;;;;5118195;28;20180;-69
2022/06/28 04:48:27;;;;;;;11.17;10.27;;;16.80;99.90;;;;;;5118498;28;20180;-69
2022/06/28 04:50:53;;;;;;;10.17;9.40;;;16.80;99.90;;;;;;5114525;28;20611;-69
2022/06/28 04:53:19;;;;;;;11.90;10.70;;;16.80;99.90;;;;;;5124286;27;20175;-69
2022/06/28 04:55:45;;;;;;;11.30;10.30;;;16.80;99.90;;;;;;5110084;27;20571;-69
2022/06/28 04:58:10;;;;;;;12.03;10.93;;;16.90;99.90;;;;;;5101649;27;20203;-69
2022/06/28 05:00:36;;;;;;;11.40;10.43;;;17.00;99.90;;;;;;5126299;27;20674;-69
2022/06/28 05:03:02;;;;;;;11.80;10.80;;;17.30;99.90;;;;;;5128359;27;20271;-70
2022/06/28 05:05:27;;;;;;;10.67;9.77;;;17.70;99.90;;;;;;5134108;27;20183;-70
2022/06/28 05:07:53;;;;;;;12.70;11.80;;;18.00;99.90;;;;;;5130406;27;20683;-71
2022/06/28 05:10:19;;;;;;;11.63;10.63;;;18.30;99.90;;;;;;5121828;27;20240;-70
2022/06/28 05:12:45;;;;;;;11.93;11.03;;;18.60;99.90;;;;;;5126879;27;20540;-70
2022/06/28 05:15:10;;;;;;;13.40;12.47;;;18.80;99.90;;;;;;5116523;27;20537;-76
2022/06/28 05:17:40;;;;;;;12.30;11.40;;;19.10;99.90;;;;;;5132088;27;20179;-71
2022/06/28 05:20:07;;;;;;;12.87;11.53;;;19.20;99.90;;;;;;5115740;27;20430;-71
2022/06/28 05:22:33;;;;;;;11.67;10.67;;;19.40;99.90;;;;;;5117377;27;20429;-71
2022/06/28 05:24:59;;;;;;;11.47;10.67;;;19.60;99.90;;;;;;5118298;27;20933;-71
2022/06/28 05:27:24;;;;;;;12.90;11.93;;;19.70;99.90;;;;;;5135919;27;20222;-71
2022/06/28 05:29:50;;;;;;;11.00;10.20;;;19.80;99.90;;;;;;5105956;27;20179;-71
2022/06/28 05:32:16;;;;;;;11.60;10.70;;;19.90;99.90;;;;;;5135917;27;20201;-71
2022/06/28 05:34:42;;;;;;;12.90;12.00;;;20.00;99.90;;;;;;5127265;27;20715;-71
2022/06/28 05:37:07;;;;;;;9.70;8.90;;;20.10;99.90;;;;;;5126979;27;20646;-71
2022/06/28 05:39:33;;;;;;;10.80;10.00;;;20.20;99.90;;;;;;5104454;27;20313;-71
2022/06/28 05:41:59;;;;;;;10.67;9.87;;;20.20;99.90;;;;;;5100193;28;20184;-71
2022/06/28 05:44:25;;;;;;;12.13;11.13;;;20.30;99.90;;;;;;5115142;28;20251;-71
2022/06/28 05:46:53;;;;;;;10.40;9.70;;;20.30;99.90;;;;;;5084031;27;20567;-72
2022/06/28 05:49:19;;;;;;;10.30;9.50;;;20.40;99.90;;;;;;5130435;27;20515;-71
2022/06/28 05:51:44;;;;;;;10.97;10.10;;;20.40;99.70;;;;;;5128948;27;20175;-71
2022/06/28 05:54:10;;;;;;;11.67;10.50;;;20.50;99.60;;;;;;5094801;28;20176;-71
2022/06/28 05:56:36;;;;;;;12.37;11.47;;;20.50;99.30;;;;;;5104173;28;20176;-71
2022/06/28 05:59:04;;;;;;;10.97;10.10;;;20.60;99.50;;;;;;5128577;27;20827;-71
2022/06/28 06:01:30;;;;;;;12.20;11.20;;;20.40;98.40;;;;;;5104380;27;20426;-72
2022/06/28 06:03:59;;;;;;;11.77;10.77;;;20.10;99.40;;;;;;5135746;27;20436;-71
2022/06/28 06:06:25;;;;;;;13.03;12.03;;;20.10;99.90;;;;;;5127446;27;20421;-71
2022/06/28 06:08:54;;;;;;;11.77;10.77;;;20.00;99.50;;;;;;5113953;28;20427;-71
2022/06/28 06:11:20;;;;;;;14.63;12.60;;;19.90;99.90;;;;;;5114888;28;20194;-71
2022/06/28 06:13:46;;;;;;;11.27;10.37;;;19.80;99.90;;;;;;5120845;27;20427;-72
2022/06/28 06:16:11;;;;;;;12.33;11.27;;;19.90;99.90;;;;;;5114400;27;20430;-72
2022/06/28 06:18:37;;;;;;;11.00;10.20;;;20.00;99.90;;;;;;5109344;27;20207;-72
2022/06/28 06:21:03;;;;;;;11.57;10.50;;;20.20;99.90;;;;;;5119166;27;20242;-71
2022/06/28 06:23:29;;;;;;;14.00;12.90;;;20.30;99.90;;;;;;5114328;28;20176;-71
2022/06/28 06:25:54;;;;;;;12.13;11.10;;;20.10;99.90;;;;;;5112661;28;20203;-71
2022/06/28 06:28:20;;;;;;;12.20;11.10;;;20.20;99.90;;;;;;5133992;27;20186;-71
2022/06/28 06:30:46;;;;;;;9.60;8.80;;;20.40;99.90;;;;;;5115687;27;20565;-71
2022/06/28 06:33:11;;;;;;;11.40;10.70;;;20.50;99.90;;;;;;5105163;27;20215;-70
2022/06/28 06:35:37;;;;;;;9.80;8.80;;;20.60;99.90;;;;;;5133928;27;20171;-71
2022/06/28 06:38:03;;;;;;;8.37;7.77;;;20.60;99.80;;;;;;5128439;27;20678;-71
2022/06/28 06:40:30;;;;;;;8.13;7.53;;;20.70;99.70;;;;;;5114016;28;20178;-71
2022/06/28 06:42:56;;;;;;;8.20;7.50;;;20.80;99.40;;;;;;5112613;28;20172;-71
2022/06/28 06:45:22;;;;;;;8.73;8.13;;;20.80;99.60;;;;;;5113643;28;20409;-71
2022/06/28 06:47:48;;;;;;;8.47;7.73;;;20.90;99.90;;;;;;5114445;28;20425;-71
2022/06/28 06:50:14;;;;;;;8.57;7.53;;;21.00;99.90;;;;;;5120717;27;21016;-71
2022/06/28 06:52:40;;;;;;;7.37;6.87;;;21.00;99.10;;;;;;5126789;27;20182;-71
2022/06/28 06:55:07;;;;;;;8.50;7.80;;;20.90;98.20;;;;;;5133128;27;20206;-71
2022/06/28 06:57:33;;;;;;;7.10;6.60;;;21.00;99.10;;;;;;5121760;27;20559;-71
2022/06/28 06:59:59;;;;;;;7.93;7.43;;;21.10;99.20;;;;;;5113032;28;20425;-71
2022/06/28 07:02:25;;;;;;;6.63;6.23;;;21.20;98.70;;;;;;5115454;27;20416;-71
2022/06/28 07:04:50;;;;;;;6.90;6.50;;;21.30;98.40;;;;;;5114723;27;20172;-70
2022/06/28 07:07:17;;;;;;;7.03;6.53;;;21.40;97.60;;;;;;5128108;27;20228;-71
2022/06/28 07:09:43;;;;;;;6.10;5.50;;;21.50;98.10;;;;;;5134308;27;20183;-71
2022/06/28 07:12:09;;;;;;;7.30;6.70;;;21.60;97.90;;;;;;5107005;27;20509;-71
2022/06/28 07:14:35;;;;;;;6.27;5.87;;;21.50;95.70;;;;;;5114116;27;20193;-71
2022/06/28 07:17:01;;;;;;;4.87;4.47;;;21.30;95.20;;;;;;5133635;27;20432;-71
2022/06/28 07:19:26;;;;;;;5.67;5.20;;;21.20;94.70;;;;;;5130607;27;20635;-71
2022/06/28 07:21:52;;;;;;;5.93;5.40;;;21.40;96.00;;;;;;5118967;27;20215;-71
2022/06/28 07:24:18;;;;;;;5.13;4.70;;;21.50;96.60;;;;;;5113619;28;20183;-77
2022/06/28 07:26:44;;;;;;;5.90;5.50;;;21.60;96.80;;;;;;5113768;28;20246;-72
2022/06/28 07:29:12;;;;;;;4.83;4.53;;;21.70;96.50;;;;;;5113858;28;20547;-71
2022/06/28 07:31:41;;;;;;;4.47;4.17;;;21.80;97.00;;;;;;5113126;28;20378;-69
2022/06/28 07:34:08;;;;;;;5.10;4.10;;;22.00;96.90;;;;;;5113635;28;20413;-70
2022/06/28 07:36:34;;;;;;;4.23;3.93;;;22.10;96.40;;;;;;5112983;28;20408;-69
2022/06/28 07:39:00;;;;;;;4.90;4.67;;;22.20;95.50;;;;;;5120460;27;20806;-70
2022/06/28 07:41:26;;;;;;;5.63;5.43;;;22.30;95.60;;;;;;5133476;27;20408;-70
2022/06/28 07:43:52;;;;;;;5.37;5.10;;;22.40;93.60;;;;;;5134369;27;20575;-70
2022/06/28 07:46:18;;;;;;;5.97;5.47;;;22.50;93.30;;;;;;5134013;27;20408;-69
2022/06/28 07:48:44;;;;;;;4.03;3.73;;;22.70;94.00;;;;;;5106674;27;20237;-69
2022/06/28 07:53:56;;;;;;;3.50;3.20;;;22.70;92.20;;;;;;5112362;28;20565;-70
2022/06/28 07:56:21;;;;;;;3.30;3.00;;;22.80;91.40;;;;;;5112158;27;20450;-75
2022/06/28 07:58:47;;;;;;;3.90;3.60;;;22.70;90.80;;;;;;5112408;28;20496;-69
2022/06/28 08:01:13;;;;;;;3.70;2.90;;;22.60;90.20;;;;;;5112901;28;20175;-70
2022/06/28 08:03:38;;;;;;;4.03;3.83;;;22.60;91.50;;;;;;5111776;28;20172;-71
2022/06/28 08:06:07;;;;;;;3.90;3.70;;;22.60;91.10;;;;;;5108864;28;20167;-71
2022/06/28 08:08:33;;;;;;;2.80;2.60;;;22.70;91.20;;;;;;5110890;28;20857;-71
2022/06/28 08:10:59;;;;;;;5.23;5.00;;;22.70;92.10;;;;;;5118783;28;20197;-72
2022/06/28 08:13:25;;;;;;;4.27;3.00;;;22.70;91.60;;;;;;5112608;28;20535;-75
2022/06/28 08:15:51;;;;;;;4.10;3.70;;;22.80;91.80;;;;;;5127331;28;20503;-74
2022/06/28 08:18:17;;;;;;;6.00;5.70;;;22.90;91.70;;;;;;5130859;28;20218;-73
2022/06/28 08:20:43;;;;;;;4.60;3.30;;;22.90;91.40;;;;;;5111407;28;20307;-74
2022/06/28 08:23:09;;;;;;;4.40;4.10;;;22.90;91.90;;;;;;5115767;28;20436;-73
2022/06/28 08:25:34;;;;;;;4.40;4.10;;;23.00;92.00;;;;;;5132259;28;20899;-74
2022/06/28 08:28:00;;;;;;;3.10;2.80;;;23.10;91.90;;;;;;5129720;27;20421;-70
2022/06/28 08:30:27;;;;;;;3.33;3.13;;;23.20;91.30;;;;;;5136581;27;20236;-75
2022/06/28 08:32:53;;;;;;;3.83;3.63;;;23.30;90.70;;;;;;5137269;27;20171;-70
2022/06/28 08:35:20;;;;;;;2.90;2.77;;;23.40;90.80;;;;;;5137200;27;20440;-70
2022/06/28 08:37:46;;;;;;;3.00;2.73;;;23.50;90.00;;;;;;5135344;27;20423;-69
2022/06/28 08:40:12;;;;;;;2.80;2.60;;;23.60;90.10;;;;;;5137539;27;20511;-69
2022/06/28 08:42:46;;;;;;;3.23;3.03;;;23.60;88.90;;;;;;5136917;27;20459;-70
2022/06/28 08:45:12;;;;;;;3.00;2.80;;;23.70;90.50;;;;;;5137454;27;20401;-70
2022/06/28 08:47:38;;;;;;;3.53;3.33;;;23.80;89.70;;;;;;5136849;27;20757;-69
2022/06/28 08:50:15;;;;;;;2.97;2.77;;;23.80;89.90;;;;;;5136182;27;20287;-69
2022/06/28 08:52:44;;;;;;;3.63;3.27;;;23.90;88.10;;;;;;5111362;27;20464;-70
2022/06/28 08:55:10;;;;;;;3.90;3.70;;;23.90;89.70;;;;;;5113106;28;20480;-69
2022/06/28 08:57:38;;;;;;;4.20;4.00;;;24.00;89.30;;;;;;5114731;28;20417;-69
2022/06/28 09:00:06;;;;;;;4.17;3.90;;;24.10;85.80;;;;;;5116599;28;20406;-70
2022/06/28 09:02:32;;;;;;;3.70;3.50;;;24.10;87.10;;;;;;5115573;28;20826;-68
2022/06/28 09:05:00;;;;;;;3.60;3.40;;;24.20;85.20;;;;;;5115797;28;20504;-73
2022/06/28 09:07:29;;;;;;;3.03;2.83;;;24.30;84.70;;;;;;5108905;28;20433;-70
2022/06/28 09:09:56;;;;;;;3.00;2.90;;;24.40;83.30;;;;;;5116426;28;20402;-69
2022/06/28 09:12:22;;;;;;;2.60;2.50;;;24.60;85.00;;;;;;5116336;28;20405;-69
2022/06/28 09:14:48;;;;;;;3.90;3.70;;;24.60;83.70;;;;;;5115425;28;20409;-70
2022/06/28 09:17:20;;;;;;;4.67;4.47;;;24.70;82.80;;;;;;5116157;28;20405;-70
2022/06/28 09:19:45;;;;;;;3.87;3.57;;;24.60;82.10;;;;;;5115224;28;20564;-70
2022/06/28 09:22:37;;;;;;;5.13;4.90;;;24.70;82.50;;;;;;5116238;28;20548;-70
2022/06/28 09:25:24;;;;;;;4.30;4.10;;;24.70;79.40;;;;;;5116209;28;20453;-70
2022/06/28 09:28:00;;;;;;;3.63;3.37;;;24.80;79.60;;;;;;5116516;28;20421;-69
2022/06/28 09:30:31;;;;;;;3.90;3.70;;;24.90;74.70;;;;;;5115463;28;20421;-77
2022/06/28 09:32:57;;;;;;;3.53;3.43;;;25.00;77.60;;;;;;5116151;28;20417;-70
2022/06/28 09:35:24;;;;;;;3.40;3.20;;;25.10;78.70;;;;;;5114801;28;20416;-70
2022/06/28 09:37:51;;;;;;;3.27;3.07;;;25.20;79.00;;;;;;5113314;28;20493;-70
2022/06/28 09:40:19;;;;;;;3.27;3.10;;;25.20;77.30;;;;;;5115427;28;20806;-71
2022/06/28 09:43:03;;;;;;;3.30;3.20;;;25.30;75.60;;;;;;5115033;28;20414;-69
2022/06/28 09:45:29;;;;;;;4.27;3.93;;;25.40;78.90;;;;;;5115040;28;20913;-69
2022/06/28 09:47:55;;;;;;;4.13;3.00;;;25.30;76.10;;;;;;5115846;28;20460;-69
2022/06/28 09:50:23;;;;;;;3.80;3.60;;;25.50;79.80;;;;;;5115747;28;20788;-69
2022/06/28 09:52:50;;;;;;;3.77;3.57;;;25.40;78.30;;;;;;5115137;28;20417;-70
2022/06/28 09:55:17;;;;;;;3.30;3.20;;;25.50;80.90;;;;;;5115479;28;20398;-69
2022/06/28 09:57:47;;;;;;;4.30;4.10;;;25.60;80.50;;;;;;5114688;28;20401;-70
2022/06/28 10:00:15;;;;;;;3.77;3.50;;;25.80;76.30;;;;;;5115342;28;20904;-71
2022/06/28 10:02:42;;;;;;;3.90;3.57;;;25.90;76.80;;;;;;5113629;28;20445;-68
2022/06/28 10:05:11;;;;;;;3.60;3.40;;;25.90;77.00;;;;;;5115298;28;20414;-68
2022/06/28 10:07:38;;;;;;;4.23;3.93;;;26.00;75.70;;;;;;5113511;28;20413;-69
2022/06/28 10:10:07;;;;;;;3.70;3.50;;;26.00;76.60;;;;;;5115261;28;20414;-70
2022/06/28 10:15:27;;;;;;;3.40;3.10;;;26.10;75.20;;;;;;5115394;28;20400;-69
2022/06/28 10:17:58;;;;;;;4.40;4.20;;;26.20;76.90;;;;;;5114706;28;20501;-69
2022/06/28 10:20:27;;;;;;;3.73;3.47;;;26.20;70.90;;;;;;5114911;28;20422;-69
2022/06/28 10:23:28;;;;;;;3.40;3.10;;;26.10;72.40;;;;;;5114746;28;20514;-69
2022/06/28 10:26:11;;;;;;;4.60;4.33;;;26.10;75.80;;;;;;5115116;28;20406;-69
2022/06/28 10:28:46;;;;;;;3.17;3.00;;;26.20;71.50;;;;;;5113945;28;20428;-69
2022/06/28 10:31:21;;;;;;;3.60;3.40;;;26.20;69.60;;;;;;5114945;28;20759;-69
2022/06/28 10:33:48;;;;;;;2.90;2.70;;;26.20;70.70;;;;;;5113980;28;20405;-69
2022/06/28 10:36:17;;;;;;;2.90;2.80;;;26.20;73.10;;;;;;5113373;28;20397;-70
2022/06/28 10:39:01;;;;;;;3.73;3.10;;;26.30;73.80;;;;;;5110345;28;20449;-69
2022/06/28 10:41:45;;;;;;;3.20;3.07;;;26.30;70.70;;;;;;5114495;28;20932;-69
2022/06/28 10:44:20;;;;;;;4.20;3.90;;;26.30;70.50;;;;;;5113345;28;20398;-70
2022/06/28 10:47:12;;;;;;;3.10;2.90;;;26.20;71.00;;;;;;5113943;28;20416;-69
2022/06/28 10:49:44;;;;;;;4.30;3.60;;;26.10;75.30;;;;;;5109568;28;20428;-69
2022/06/28 10:52:17;;;;;;;3.00;2.90;;;26.10;68.90;;;;;;5113621;28;20406;-69
2022/06/28 10:54:52;;;;;;;3.40;3.20;;;25.90;65.60;;;;;;5112546;28;20430;-70
2022/06/28 10:57:33;;;;;;;3.17;2.87;;;25.80;66.90;;;;;;5113128;28;20767;-70
2022/06/28 11:00:10;;;;;;;3.70;3.50;;;26.00;71.00;;;;;;5114068;28;20462;-71
2022/06/28 11:02:56;;;;;;;3.37;3.17;;;26.20;66.50;;;;;;5112735;28;20401;-69
2022/06/28 11:05:26;;;;;;;3.20;2.90;;;26.40;68.50;;;;;;5114262;28;20467;-69
2022/06/28 11:07:59;;;;;;;3.40;3.17;;;26.50;69.70;;;;;;5111624;28;20437;-69
2022/06/28 11:10:26;;;;;;;3.33;3.13;;;26.60;66.70;;;;;;5114278;28;20404;-69
2022/06/28 11:12:52;;;;;;;2.90;2.80;;;26.80;63.00;;;;;;5112352;28;20761;-69
2022/06/28 11:15:27;;;;;;;3.40;3.30;;;26.80;65.00;;;;;;5112686;28;20423;-69
2022/06/28 11:17:53;;;;;;;2.93;2.83;;;26.80;63.70;;;;;;5111937;28;20465;-69
2022/06/28 11:20:27;;;;;;;3.30;3.20;;;26.80;63.90;;;;;;5113969;28;20961;-70
2022/06/28 11:22:53;;;;;;;3.70;3.50;;;26.80;68.40;;;;;;5113696;28;20227;-70
2022/06/28 11:25:22;;;;;;;3.37;3.07;;;26.70;62.40;;;;;;5114028;28;20449;-70
2022/06/28 11:27:53;;;;;;;3.27;3.00;;;26.70;63.00;;;;;;5113147;28;20449;-70
2022/06/28 11:30:23;;;;;;;3.70;3.50;;;26.60;64.80;;;;;;5095829;28;20402;-70
2022/06/28 11:32:50;;;;;;;3.30;3.20;;;26.80;67.00;;;;;;5111513;28;20470;-70
2022/06/28 11:35:30;;;;;;;3.83;3.57;;;26.90;64.30;;;;;;5113556;28;20470;-69
2022/06/28 11:37:57;;;;;;;3.93;3.73;;;27.00;62.70;;;;;;5110304;28;20456;-70
2022/06/28 11:40:29;;;;;;;3.00;2.80;;;26.90;62.40;;;;;;5110854;28;20422;-69
2022/06/28 11:43:08;;;;;;;4.13;3.83;;;26.80;61.00;;;;;;5112951;28;20891;-71
2022/06/28 11:45:39;;;;;;;3.30;3.20;;;26.70;61.30;;;;;;5113459;28;20397;-77
2022/06/28 11:48:09;;;;;;;2.93;2.70;;;26.70;65.00;;;;;;5111931;28;20417;-69
2022/06/28 11:50:54;;;;;;;3.43;3.00;;;26.80;62.80;;;;;;5111579;28;20470;-73
2022/06/28 11:53:21;;;;;;;3.30;3.10;;;26.80;65.10;;;;;;5113774;28;20398;-69
2022/06/28 11:55:51;;;;;;;6.33;6.03;;;26.70;60.90;;;;;;5112736;28;20418;-70
2022/06/28 11:58:17;;;;;;;4.17;3.87;;;26.80;64.50;;;;;;5112889;28;20971;-69
2022/06/28 12:01:03;;;;;;;3.63;3.53;;;26.80;61.40;;;;;;5112695;28;20410;-69
2022/06/28 12:03:30;;;;;;;5.43;3.20;;;27.00;62.50;;;;;;5112788;28;20674;-69
2022/06/28 12:05:57;;;;;;;2.80;2.60;;;27.20;64.70;;;;;;5112706;28;20415;-69
2022/06/28 12:08:43;;;;;;;4.80;4.60;;;27.30;60.60;;;;;;5110925;28;20778;-69
2022/06/28 12:11:37;;;;;;;3.33;2.93;;;27.30;60.50;;;;;;5112098;28;20429;-69
2022/06/28 12:14:02;;;;;;;4.87;3.70;;;27.30;59.40;;;;;;5113240;28;20489;-69
2022/06/28 12:16:47;;;;;;;4.70;4.50;;;27.30;61.70;;;;;;5111919;28;20963;-70
2022/06/28 12:19:18;;;;;;;3.30;3.20;;;27.40;63.80;;;;;;5094659;28;20199;-70
2022/06/28 12:22:03;;;;;;;3.60;3.30;;;27.40;62.70;;;;;;5112334;28;20812;-70
2022/06/28 12:24:53;;;;;;;4.73;4.63;;;27.40;62.60;;;;;;5111730;28;20425;-70
2022/06/28 12:27:27;;;;;;;2.80;2.67;;;27.30;58.80;;;;;;5112986;28;20429;-70
2022/06/28 12:29:57;;;;;;;4.50;4.20;;;27.20;58.30;;;;;;5112501;28;20792;-70
2022/06/28 12:32:23;;;;;;;3.73;2.70;;;27.00;62.50;;;;;;5112930;28;20397;-70
2022/06/28 12:35:00;;;;;;;5.70;5.40;;;27.00;63.20;;;;;;5112003;28;20412;-70
2022/06/28 12:37:27;;;;;;;4.00;3.77;;;26.90;63.00;;;;;;5092731;28;20925;-70
2022/06/28 12:39:53;;;;;;;3.00;2.80;;;26.80;61.60;;;;;;5111282;28;20476;-70
2022/06/28 12:42:22;;;;;;;9.00;4.10;;;26.60;62.90;;;;;;5060044;28;20512;-70
2022/06/28 12:44:51;;;;;;;3.20;2.90;;;26.50;59.40;;;;;;5112437;28;20402;-70
2022/06/28 12:47:16;;;;;;;2.30;2.20;;;26.40;60.60;;;;;;5112670;28;20543;-69
2022/06/28 12:49:42;;;;;;;3.80;3.60;;;26.40;62.00;;;;;;5112464;28;20180;-70
2022/06/28 12:52:08;;;;;;;3.90;3.50;;;26.30;63.00;;;;;;5110963;28;20666;-70
2022/06/28 12:54:34;;;;;;;4.20;4.00;;;26.20;62.40;;;;;;5111898;28;20641;-70
2022/06/28 12:57:00;;;;;;;4.27;3.90;;;26.10;63.30;;;;;;5110851;28;20500;-71